Time;durP1;ratioP1;P1;durP2;ratioP2;P2;SDS_P1;SDS_P2;PMS_P1;PMS_P2;Temp;Humidity;BMP_temperature;BMP_pressure;BME280_temperature;BME280_humidity;BME280_pressure;Samples;Min_cycle;Max_cycle;Signal;HPM_P1;HPM_P2
2023/08/19 00:00:31;;;;;;;22.45;20.35;;;;;;;22.65;100.00;100994.91;5264823;28;20435;-79
2023/08/19 00:03:02;;;;;;;22.77;20.67;;;;;;;22.42;100.00;100998.94;5265130;28;20124;-79
2023/08/19 00:05:34;;;;;;;24.17;21.58;;;;;;;22.51;100.00;101001.06;5265070;28;20041;-79
2023/08/19 00:08:05;;;;;;;24.63;22.37;;;;;;;22.49;100.00;101000.28;5247293;28;20029;-79
2023/08/19 00:10:36;;;;;;;25.37;22.97;;;;;;;22.52;100.00;101003.63;5247502;28;20029;-80
2023/08/19 00:13:08;;;;;;;24.60;22.70;;;;;;;22.50;100.00;100986.06;5265297;28;20068;-79
2023/08/19 00:15:39;;;;;;;25.23;22.80;;;;;;;22.47;100.00;100989.72;5247616;28;20036;-79
2023/08/19 00:18:11;;;;;;;23.53;21.50;;;;;;;22.50;100.00;100991.38;5265084;28;20283;-82
2023/08/19 00:20:42;;;;;;;25.43;23.20;;;;;;;22.42;100.00;100990.97;5265611;28;20129;-81
2023/08/19 00:23:16;;;;;;;24.77;22.58;;;;;;;22.50;100.00;100999.34;5266787;28;20357;-80
2023/08/19 00:25:47;;;;;;;24.42;22.13;;;;;;;22.52;100.00;100995.66;5267965;28;20029;-80
2023/08/19 00:28:18;;;;;;;24.53;22.33;;;;;;;22.53;100.00;100999.16;5268670;28;20044;-80
2023/08/19 00:30:50;;;;;;;23.70;21.50;;;;;;;22.46;100.00;100993.34;5272704;28;20033;-79
2023/08/19 00:33:23;;;;;;;26.48;23.30;;;;;;;22.48;100.00;100986.13;5251928;28;20083;-79
2023/08/19 00:35:54;;;;;;;23.73;21.50;;;;;;;22.39;100.00;100987.56;5265497;28;20028;-79
2023/08/19 00:38:26;;;;;;;26.03;23.73;;;;;;;22.43;100.00;100993.53;5264616;28;20029;-80
2023/08/19 00:40:57;;;;;;;25.23;22.80;;;;;;;22.32;100.00;100994.16;5264925;28;20029;-80
2023/08/19 00:43:30;;;;;;;23.60;21.38;;;;;;;22.28;100.00;100995.28;5264866;28;20053;-80
2023/08/19 00:46:01;;;;;;;;;;;;;;;22.39;100.00;100997.31;5265264;28;20033;-81
2023/08/19 00:48:33;;;;;;;23.17;20.97;;;;;;;22.33;100.00;100995.88;5264651;28;19924;-80
2023/08/19 00:51:05;;;;;;;25.30;22.95;;;;;;;22.30;100.00;100996.06;5264345;28;20111;-80
2023/08/19 00:53:36;;;;;;;;;;;;;;;22.38;100.00;100999.13;5264984;28;20032;-79
2023/08/19 00:56:08;;;;;;;23.67;21.17;;;;;;;22.29;100.00;100994.34;5246213;28;20395;-80
2023/08/19 00:58:40;;;;;;;22.75;20.52;;;;;;;22.35;100.00;100993.13;5264633;28;20082;-80
2023/08/19 01:01:11;;;;;;;22.70;20.58;;;;;;;22.34;100.00;100983.44;5246378;28;20043;-80
2023/08/19 01:03:43;;;;;;;22.70;20.40;;;;;;;22.33;100.00;100979.06;5264163;28;20024;-80
2023/08/19 01:06:28;;;;;;;23.43;21.27;;;;;;;22.35;100.00;100983.34;5246685;28;20095;-79
2023/08/19 01:09:14;;;;;;;21.60;19.60;;;;;;;22.37;100.00;100986.78;5264107;28;20025;-80
2023/08/19 01:12:28;;;;;;;22.48;20.55;;;;;;;22.40;100.00;100981.28;5263286;28;20079;-78
2023/08/19 01:15:05;;;;;;;21.77;19.25;;;;;;;22.36;100.00;100973.56;5234065;28;20045;-80
2023/08/19 01:17:37;;;;;;;19.88;17.98;;;;;;;22.40;100.00;100981.28;5263777;28;20082;-80
2023/08/19 01:20:11;;;;;;;20.38;18.33;;;;;;;22.38;100.00;100977.88;5263966;28;20495;-79
2023/08/19 01:22:42;;;;;;;21.80;19.90;;;;;;;22.34;100.00;100978.97;5263904;28;20040;-79
2023/08/19 01:25:14;;;;;;;21.03;18.93;;;;;;;22.41;100.00;100976.81;5263857;28;20033;-82
2023/08/19 01:27:45;;;;;;;21.05;19.10;;;;;;;22.49;100.00;100971.91;5263469;28;20071;-79
2023/08/19 01:30:17;;;;;;;19.58;17.88;;;;;;;22.51;100.00;100977.16;5263624;28;20358;-80
2023/08/19 01:32:49;;;;;;;20.63;18.75;;;;;;;22.52;100.00;100969.09;5263364;28;20035;-80
2023/08/19 01:35:20;;;;;;;20.48;18.58;;;;;;;22.54;100.00;100956.56;5246230;28;20033;-81
2023/08/19 01:38:06;;;;;;;19.38;17.48;;;;;;;22.53;100.00;100959.31;5264051;28;20025;-80
2023/08/19 01:40:39;;;;;;;19.00;17.13;;;;;;;22.56;100.00;100944.03;5263647;28;20057;-80
2023/08/19 01:43:11;;;;;;;19.50;17.70;;;;;;;22.56;100.00;100943.19;5263524;28;20049;-79
2023/08/19 01:45:43;;;;;;;18.33;16.63;;;;;;;22.57;100.00;100940.44;5263648;28;20043;-79
2023/08/19 01:48:14;;;;;;;17.90;16.40;;;;;;;22.62;100.00;100941.94;5245724;28;20033;-81
2023/08/19 01:50:45;;;;;;;17.00;15.48;;;;;;;22.64;100.00;100948.88;5263178;28;20044;-80
2023/08/19 01:53:17;;;;;;;18.53;16.87;;;;;;;22.68;100.00;100944.22;5262899;28;20060;-80
2023/08/19 01:55:48;;;;;;;15.80;14.40;;;;;;;22.67;100.00;100945.16;5263004;28;20052;-80
2023/08/19 01:58:20;;;;;;;16.43;14.77;;;;;;;22.66;100.00;100948.78;5263238;28;20114;-79
2023/08/19 02:00:51;;;;;;;15.50;14.07;;;;;;;22.69;100.00;100946.78;5262926;28;20029;-79
2023/08/19 02:03:22;;;;;;;16.73;15.13;;;;;;;22.70;100.00;100948.50;5262964;28;20033;-79
2023/08/19 02:05:54;;;;;;;16.13;14.63;;;;;;;22.67;100.00;100943.38;5263044;28;20033;-78
2023/08/19 02:08:25;;;;;;;16.25;14.57;;;;;;;22.64;100.00;100940.06;5262906;28;20040;-79
2023/08/19 02:10:56;;;;;;;16.43;14.33;;;;;;;22.70;100.00;100939.66;5263727;28;20471;-80
2023/08/19 02:13:28;;;;;;;15.33;13.93;;;;;;;22.66;100.00;100939.00;5263448;28;20033;-80
2023/08/19 02:15:59;;;;;;;15.60;13.83;;;;;;;22.64;100.00;100940.06;5263512;28;20029;-79
2023/08/19 02:18:30;;;;;;;15.40;13.87;;;;;;;22.65;100.00;100929.31;5262562;28;20151;-78
2023/08/19 02:21:03;;;;;;;16.17;14.47;;;;;;;22.69;100.00;100932.66;5263227;28;20117;-79
2023/08/19 02:23:34;;;;;;;15.15;13.65;;;;;;;22.60;100.00;100933.22;5263529;28;20391;-80
2023/08/19 02:26:05;;;;;;;14.60;13.10;;;;;;;22.62;100.00;100926.00;5245988;28;20036;-78
2023/08/19 02:28:37;;;;;;;13.83;12.60;;;;;;;22.66;100.00;100924.88;5273040;28;20044;-79
2023/08/19 02:31:08;;;;;;;14.97;13.47;;;;;;;22.58;100.00;100914.72;5276421;28;20035;-79
2023/08/19 02:33:41;;;;;;;15.25;13.20;;;;;;;22.57;100.00;100913.88;5276132;28;20033;-79
2023/08/19 02:36:14;;;;;;;14.18;12.80;;;;;;;22.60;100.00;100918.13;5257783;28;20041;-78
2023/08/19 02:38:45;;;;;;;14.07;12.68;;;;;;;22.53;100.00;100914.16;5259549;28;20082;-79
2023/08/19 02:41:16;;;;;;;14.20;12.83;;;;;;;22.56;100.00;100916.63;5276605;28;20068;-78
2023/08/19 02:43:48;;;;;;;13.93;12.77;;;;;;;22.56;100.00;100909.50;5278894;28;20291;-78
2023/08/19 02:46:20;;;;;;;13.80;12.60;;;;;;;22.55;100.00;100912.25;5276284;28;20068;-79
2023/08/19 02:48:51;;;;;;;14.00;12.13;;;;;;;22.56;100.00;100914.81;5275651;28;20033;-82
2023/08/19 02:51:22;;;;;;;14.47;13.07;;;;;;;22.60;100.00;100906.66;5276612;28;20087;-79
2023/08/19 02:53:54;;;;;;;14.57;12.33;;;;;;;22.63;100.00;100917.09;5276781;28;20041;-80
2023/08/19 02:56:25;;;;;;;15.48;12.75;;;;;;;22.54;100.00;100914.06;5276377;28;20275;-79
2023/08/19 02:58:57;;;;;;;12.43;11.13;;;;;;;22.60;100.00;100911.97;5276832;28;20029;-78
2023/08/19 03:01:28;;;;;;;13.57;12.27;;;;;;;22.58;100.00;100907.59;5276537;28;20084;-80
2023/08/19 03:04:00;;;;;;;12.63;11.33;;;;;;;22.57;100.00;100913.88;5274886;28;20093;-80
2023/08/19 03:06:33;;;;;;;13.20;11.68;;;;;;;22.60;100.00;100906.66;5271707;28;20044;-80
2023/08/19 03:09:05;;;;;;;13.98;12.30;;;;;;;22.54;100.00;100910.53;5271107;28;20029;-79
2023/08/19 03:11:36;;;;;;;12.70;11.38;;;;;;;22.53;100.00;100908.81;5272556;28;20033;-80
2023/08/19 03:14:08;;;;;;;13.50;12.10;;;;;;;22.50;100.00;100912.50;5274981;28;20508;-81
2023/08/19 03:16:39;;;;;;;12.95;11.65;;;;;;;22.46;100.00;100913.66;5254746;28;20082;-81
2023/08/19 03:19:10;;;;;;;13.50;11.47;;;;;;;22.51;100.00;100906.25;5270570;28;20037;-79
2023/08/19 03:21:42;;;;;;;12.60;11.50;;;;;;;22.47;100.00;100902.06;5268606;28;20115;-78
2023/08/19 03:24:13;;;;;;;13.27;12.00;;;;;;;22.44;100.00;100904.91;5269122;28;20040;-80
2023/08/19 03:26:44;;;;;;;13.27;11.27;;;;;;;22.48;100.00;100903.78;5253174;28;20033;-81
2023/08/19 03:29:16;;;;;;;12.70;11.50;;;;;;;22.45;100.00;100901.31;5253580;28;20428;-80
2023/08/19 03:31:47;;;;;;;11.63;10.47;;;;;;;22.41;100.00;100897.13;5270222;28;20504;-81
2023/08/19 03:34:18;;;;;;;13.97;12.57;;;;;;;22.46;100.00;100904.81;5266715;28;20040;-79
2023/08/19 03:36:50;;;;;;;11.77;10.63;;;;;;;22.39;100.00;100901.69;5267334;28;20029;-79
2023/08/19 03:39:21;;;;;;;11.97;10.87;;;;;;;22.40;100.00;100904.25;5267394;28;20032;-78
2023/08/19 03:41:53;;;;;;;11.37;10.13;;;;;;;22.44;100.00;100899.59;5267981;28;20037;-78
2023/08/19 03:44:24;;;;;;;12.30;11.10;;;;;;;22.44;100.00;100912.88;5268306;28;20053;-79
2023/08/19 03:46:55;;;;;;;14.17;10.53;;;;;;;22.39;100.00;100913.19;5267952;28;20124;-80
2023/08/19 03:49:27;;;;;;;11.63;10.23;;;;;;;22.43;100.00;100911.19;5267490;28;20033;-80
2023/08/19 03:51:58;;;;;;;12.80;11.13;;;;;;;22.41;100.00;100905.09;5266518;28;20037;-80
2023/08/19 03:54:29;;;;;;;11.87;10.60;;;;;;;22.36;100.00;100909.84;5266026;28;20163;-79
2023/08/19 03:57:01;;;;;;;11.30;10.07;;;;;;;22.39;100.00;100912.31;5265858;28;20538;-79
2023/08/19 03:59:33;;;;;;;12.25;10.10;;;;;;;22.35;100.00;100902.84;5265973;28;20480;-80
2023/08/19 04:02:04;;;;;;;11.60;9.50;;;;;;;22.34;100.00;100917.06;5267274;28;20116;-80
2023/08/19 04:04:36;;;;;;;11.68;10.20;;;;;;;22.33;100.00;100915.34;5266793;28;20037;-79
2023/08/19 04:07:08;;;;;;;11.77;10.50;;;;;;;22.31;100.00;100907.47;5248463;28;20483;-80
2023/08/19 04:09:39;;;;;;;12.43;10.43;;;;;;;22.36;100.00;100913.38;5266154;28;20023;-79
2023/08/19 04:12:10;;;;;;;11.17;9.93;;;;;;;22.37;100.00;100919.53;5254918;28;20037;-79
2023/08/19 04:14:42;;;;;;;14.03;9.80;;;;;;;22.34;100.00;100912.59;5274642;28;20044;-78
2023/08/19 04:17:13;;;;;;;9.83;8.83;;;;;;;22.36;100.00;100915.16;5275766;28;20044;-80
2023/08/19 04:19:45;;;;;;;11.23;9.10;;;;;;;22.35;100.00;100919.63;5274344;28;20056;-79
2023/08/19 04:22:18;;;;;;;11.15;9.95;;;;;;;22.36;100.00;100925.78;5273834;28;20021;-79
2023/08/19 04:24:50;;;;;;;;;;;;;;;22.41;100.00;100918.38;5274212;28;20029;-82
2023/08/19 04:27:23;;;;;;;10.27;9.25;;;;;;;22.37;100.00;100920.38;5272069;28;19916;-80
2023/08/19 04:29:55;;;;;;;9.82;8.80;;;;;;;22.33;100.00;100925.97;5252576;28;20033;-79
2023/08/19 04:32:27;;;;;;;9.87;8.97;;;;;;;22.38;100.00;100918.59;5267839;28;20384;-79
2023/08/19 04:34:58;;;;;;;13.43;8.95;;;;;;;22.36;100.00;100916.03;5264889;28;20029;-80
2023/08/19 04:37:30;;;;;;;9.83;8.87;;;;;;;22.38;100.00;100921.25;5264934;28;20029;-79
2023/08/19 04:40:01;;;;;;;11.30;9.10;;;;;;;22.37;100.00;100932.81;5264759;28;20035;-79
2023/08/19 04:42:32;;;;;;;11.80;9.63;;;;;;;22.42;100.00;100929.88;5264914;28;20071;-78
2023/08/19 04:45:07;;;;;;;10.77;8.30;;;;;;;22.39;100.00;100930.91;5247111;28;20021;-79
2023/08/19 04:47:38;;;;;;;13.85;8.27;;;;;;;22.37;100.00;100930.16;5263332;28;20091;-80
2023/08/19 04:50:10;;;;;;;10.53;8.37;;;;;;;22.39;100.00;100930.91;5264532;28;20067;-79
2023/08/19 04:52:41;;;;;;;12.67;9.23;;;;;;;22.37;100.00;100927.50;5264475;28;20024;-79
2023/08/19 04:55:14;;;;;;;8.87;7.97;;;;;;;22.35;100.00;100929.41;5264270;28;20115;-79
2023/08/19 04:57:46;;;;;;;12.30;8.45;;;;;;;22.37;100.00;100922.19;5264169;28;20075;-78
2023/08/19 05:00:17;;;;;;;11.27;8.93;;;;;;;22.39;100.00;100915.84;5264107;28;20029;-79
2023/08/19 05:02:49;;;;;;;12.18;8.73;;;;;;;22.42;100.00;100922.75;5263807;28;20029;-79
2023/08/19 05:05:20;;;;;;;10.20;7.57;;;;;;;22.46;100.00;100918.97;5264006;28;20040;-77
2023/08/19 05:07:52;;;;;;;9.97;7.93;;;;;;;22.51;100.00;100926.66;5264109;28;20396;-80
2023/08/19 05:10:23;;;;;;;8.77;7.80;;;;;;;22.55;100.00;100926.38;5264241;28;20083;-80
2023/08/19 05:12:54;;;;;;;11.57;8.13;;;;;;;22.63;100.00;100933.03;5263720;28;20385;-78
2023/08/19 05:15:26;;;;;;;9.57;8.13;;;;;;;22.69;99.57;100937.97;5264245;28;20369;-79
2023/08/19 05:17:57;;;;;;;8.83;7.43;;;;;;;22.68;100.00;100926.47;5265032;28;20025;-79
2023/08/19 05:20:28;;;;;;;10.63;7.30;;;;;;;22.76;99.46;100940.16;5265254;28;20032;-78
2023/08/19 05:23:00;;;;;;;15.73;9.70;;;;;;;22.83;99.16;100942.41;5266028;28;20029;-79
2023/08/19 05:25:31;;;;;;;8.93;7.67;;;;;;;22.81;99.29;100939.00;5264952;28;20044;-79
2023/08/19 05:28:03;;;;;;;12.90;7.60;;;;;;;22.89;97.31;100944.69;5265687;28;20037;-79
2023/08/19 05:30:34;;;;;;;11.55;7.65;;;;;;;22.84;98.39;100939.66;5269392;28;20040;-79
2023/08/19 05:33:06;;;;;;;9.73;7.03;;;;;;;22.83;98.62;100945.94;5274103;28;20029;-79
2023/08/19 05:35:38;;;;;;;12.23;7.87;;;;;;;22.81;99.36;100942.50;5270261;28;20040;-79
2023/08/19 05:38:10;;;;;;;10.00;6.97;;;;;;;22.74;99.92;100941.19;5264384;28;20033;-79
2023/08/19 05:40:41;;;;;;;11.77;7.73;;;;;;;22.74;99.94;100938.53;5264798;28;20025;-79
2023/08/19 05:43:12;;;;;;;10.00;7.37;;;;;;;22.75;99.76;100935.78;5263195;28;20519;-79
2023/08/19 05:45:44;;;;;;;10.85;7.28;;;;;;;22.79;99.93;100947.06;5245108;28;20029;-79
2023/08/19 05:48:15;;;;;;;10.43;7.60;;;;;;;22.83;99.31;100951.28;5262860;28;20110;-80
2023/08/19 05:50:46;;;;;;;9.73;7.20;;;;;;;22.88;98.89;100945.66;5263991;28;20385;-80
2023/08/19 05:53:18;;;;;;;9.63;6.90;;;;;;;22.90;99.32;100938.44;5262762;28;20491;-79
2023/08/19 05:55:49;;;;;;;11.43;7.37;;;;;;;22.99;98.11;100951.19;5263412;28;20049;-81
2023/08/19 05:58:21;;;;;;;9.20;7.17;;;;;;;23.06;97.14;100944.50;5262974;28;20469;-79
2023/08/19 06:00:59;;;;;;;9.53;6.70;;;;;;;23.12;96.99;100956.59;5263295;28;20041;-79
2023/08/19 06:03:31;;;;;;;11.77;6.90;;;;;;;23.11;97.61;100944.25;5262697;28;20029;-80
2023/08/19 06:06:05;;;;;;;13.30;7.10;;;;;;;23.19;96.02;100973.88;5263089;28;20029;-79
2023/08/19 06:08:36;;;;;;;9.48;6.80;;;;;;;23.27;96.14;100965.41;5262691;28;20029;-80
2023/08/19 06:11:08;;;;;;;9.40;6.25;;;;;;;23.35;95.60;100972.91;5263313;28;20361;-78
2023/08/19 06:13:40;;;;;;;11.95;6.78;;;;;;;23.41;95.28;100965.41;5244724;28;20032;-79
2023/08/19 06:16:11;;;;;;;8.87;6.70;;;;;;;23.43;94.31;100968.81;5263056;28;20040;-79
2023/08/19 06:18:42;;;;;;;8.70;6.57;;;;;;;23.47;94.01;100966.78;5262216;28;20037;-79
2023/08/19 06:21:14;;;;;;;10.63;6.70;;;;;;;23.51;93.56;100970.97;5263195;28;20485;-79
2023/08/19 06:23:45;;;;;;;9.60;6.37;;;;;;;23.54;93.68;100972.56;5244305;28;20025;-80
2023/08/19 06:26:16;;;;;;;7.60;6.73;;;;;;;23.59;93.65;100981.97;5244469;28;20112;-80
2023/08/19 06:28:49;;;;;;;9.77;6.00;;;;;;;23.67;93.62;100990.31;5262508;28;20469;-80
2023/08/19 06:31:20;;;;;;;;;;;;;;;23.93;92.38;100994.94;5263415;28;20492;-80
2023/08/19 06:33:53;;;;;;;9.13;6.00;;;;;;;23.91;91.08;100987.03;5262014;28;19909;-80
2023/08/19 06:36:29;;;;;;;8.13;6.18;;;;;;;24.05;89.65;100995.91;5262844;28;20021;-80
2023/08/19 06:39:05;;;;;;;8.25;6.43;;;;;;;24.09;90.01;100987.63;5262179;28;20025;-80
2023/08/19 06:41:41;;;;;;;11.43;7.13;;;;;;;24.17;89.29;101000.44;5262691;28;20036;-80
2023/08/19 06:44:14;;;;;;;10.30;6.82;;;;;;;24.20;90.20;101008.22;5262357;28;20045;-80
2023/08/19 06:46:46;;;;;;;12.48;6.90;;;;;;;24.23;88.11;101017.81;5262692;28;20400;-80
2023/08/19 06:49:17;;;;;;;11.98;6.47;;;;;;;24.34;86.04;101017.94;5262605;28;20045;-80
2023/08/19 06:51:50;;;;;;;11.32;6.05;;;;;;;24.35;86.33;101015.19;5266390;28;20485;-82
2023/08/19 06:54:21;;;;;;;;;;;;;;;24.51;86.87;101017.66;5262773;28;20124;-80
2023/08/19 06:56:55;;;;;;;7.00;5.97;;;;;;;24.39;86.63;101023.81;5263110;28;20424;-81
2023/08/19 06:59:38;;;;;;;9.57;6.03;;;;;;;24.38;87.46;101022.97;5262258;28;20033;-79
2023/08/19 07:02:11;;;;;;;11.15;6.82;;;;;;;24.35;86.85;101023.16;5262948;28;20029;-80
2023/08/19 07:04:45;;;;;;;12.15;6.80;;;;;;;24.31;87.38;101034.13;5244316;28;20033;-80
2023/08/19 07:07:21;;;;;;;12.05;5.97;;;;;;;24.26;88.18;101029.09;5262859;28;20174;-79
2023/08/19 07:09:53;;;;;;;11.15;6.07;;;;;;;24.27;87.55;101029.97;5263023;28;20035;-80
2023/08/19 07:12:24;;;;;;;8.65;7.03;;;;;;;24.35;87.36;101028.50;5266860;28;20104;-80
2023/08/19 07:14:56;;;;;;;10.48;6.53;;;;;;;24.44;87.13;101027.03;5265753;28;20487;-80
2023/08/19 07:17:30;;;;;;;10.70;6.47;;;;;;;24.72;85.62;101028.69;5266342;28;20064;-80
2023/08/19 07:20:03;;;;;;;8.73;6.32;;;;;;;24.99;85.47;101032.22;5266302;28;20033;-80
2023/08/19 07:22:38;;;;;;;9.07;7.03;;;;;;;25.27;83.56;101031.13;5266373;28;20558;-81
2023/08/19 07:25:10;;;;;;;9.32;6.70;;;;;;;25.44;82.03;101035.31;5265765;28;20032;-81
2023/08/19 07:27:45;;;;;;;9.75;6.35;;;;;;;25.67;80.88;101030.97;5266237;28;20388;-81
2023/08/19 07:30:17;;;;;;;9.00;6.72;;;;;;;25.79;80.29;101026.56;5265948;28;20040;-82
2023/08/19 07:32:48;;;;;;;10.77;6.80;;;;;;;25.91;79.35;101016.81;5266491;28;20040;-82
2023/08/19 07:35:20;;;;;;;10.13;6.72;;;;;;;25.99;78.96;101044.66;5265476;28;20041;-81
2023/08/19 07:37:51;;;;;;;10.50;6.82;;;;;;;26.14;79.37;101040.00;5249461;28;20194;-80
2023/08/19 07:40:23;;;;;;;7.80;6.50;;;;;;;26.29;78.16;101059.41;5248471;28;20049;-83
2023/08/19 07:42:54;;;;;;;10.93;6.40;;;;;;;26.29;77.01;101061.19;5266259;28;20705;-84
2023/08/19 07:45:25;;;;;;;12.00;6.57;;;;;;;26.39;77.17;101060.41;5248193;28;20388;-81
2023/08/19 07:47:57;;;;;;;11.27;5.75;;;;;;;26.34;76.91;101073.25;5268434;28;20282;-81
2023/08/19 07:50:29;;;;;;;11.37;5.97;;;;;;;26.35;78.22;101068.75;5267153;28;20033;-84
2023/08/19 07:53:00;;;;;;;11.30;6.25;;;;;;;26.41;77.66;101084.34;5269409;28;20683;-83
2023/08/19 07:55:31;;;;;;;8.65;6.00;;;;;;;26.39;77.37;101078.28;5278173;28;20036;-81
2023/08/19 07:58:03;;;;;;;12.07;6.13;;;;;;;26.35;77.72;101082.13;5271360;28;20041;-82
2023/08/19 08:00:35;;;;;;;12.38;6.63;;;;;;;26.27;78.11;101076.50;5274714;28;20041;-83
2023/08/19 08:03:07;;;;;;;11.57;5.72;;;;;;;26.38;77.98;101064.03;5267732;28;20492;-82
2023/08/19 08:05:38;;;;;;;9.80;6.78;;;;;;;26.49;78.88;101055.22;5266103;28;20037;-83
2023/08/19 08:08:09;;;;;;;8.32;6.47;;;;;;;26.46;78.38;101071.47;5250068;28;20424;-81
2023/08/19 08:10:41;;;;;;;8.38;6.13;;;;;;;26.41;78.18;101065.63;5282706;28;20023;-86
2023/08/19 08:13:12;;;;;;;10.20;5.45;;;;;;;26.25;78.81;101084.63;5285509;28;20029;-80
2023/08/19 08:15:44;;;;;;;9.05;5.60;;;;;;;26.14;79.43;101080.06;5271851;28;20052;-84
2023/08/19 08:18:15;;;;;;;8.95;5.60;;;;;;;26.00;79.91;101072.22;5277182;28;20033;-82
2023/08/19 08:20:47;;;;;;;10.00;6.40;;;;;;;25.92;80.51;101078.13;5271371;28;20041;-84
2023/08/19 08:23:18;;;;;;;17.87;6.30;;;;;;;26.00;80.83;101080.25;5248187;28;20605;-82
2023/08/19 08:25:49;;;;;;;9.50;6.20;;;;;;;25.99;82.40;101095.41;5266364;28;20311;-84
2023/08/19 08:28:21;;;;;;;9.70;5.90;;;;;;;26.11;80.78;101107.00;5265203;28;20310;-83
2023/08/19 08:30:52;;;;;;;10.77;5.70;;;;;;;25.91;81.54;101110.28;5268051;28;20062;-84
2023/08/19 08:33:25;;;;;;;9.32;5.93;;;;;;;25.77;81.56;101104.09;5268084;28;20064;-85
2023/08/19 08:35:58;;;;;;;15.85;6.32;;;;;;;25.80;82.93;101090.53;5268580;28;20044;-85
2023/08/19 08:38:29;;;;;;;15.02;6.40;;;;;;;25.82;83.25;101138.47;5269064;28;20029;-83
2023/08/19 08:41:08;;;;;;;8.30;6.20;;;;;;;25.66;83.55;101131.59;5249449;28;20481;-83
2023/08/19 08:43:40;;;;;;;8.95;5.57;;;;;;;25.63;85.28;101142.47;5265451;28;20049;-82
2023/08/19 08:46:14;;;;;;;10.43;6.25;;;;;;;25.66;84.25;101130.72;5265829;28;20040;-83
2023/08/19 08:48:46;;;;;;;12.25;6.60;;;;;;;25.72;84.41;101132.09;5247463;28;20039;-83
2023/08/19 08:51:19;;;;;;;11.93;6.22;;;;;;;25.78;82.89;101132.53;5268845;28;20029;-82
2023/08/19 08:53:52;;;;;;;7.60;5.60;;;;;;;25.82;83.31;101138.47;5274805;28;20035;-81
2023/08/19 08:56:23;;;;;;;13.27;6.35;;;;;;;25.79;84.11;101146.72;5282089;28;20637;-83
2023/08/19 08:58:55;;;;;;;8.82;5.78;;;;;;;25.97;83.08;101153.44;5267873;28;20067;-83
2023/08/19 09:01:28;;;;;;;7.68;6.40;;;;;;;25.99;82.96;101156.00;5264319;28;20036;-83
2023/08/19 09:04:04;;;;;;;8.90;6.68;;;;;;;26.02;83.12;101166.47;5285250;28;20028;-82
2023/08/19 09:06:37;;;;;;;9.13;5.85;;;;;;;26.20;82.74;101169.63;5286718;28;20040;-82
2023/08/19 09:09:12;;;;;;;12.95;7.13;;;;;;;26.34;81.80;101165.94;5285330;28;20480;-82
2023/08/19 09:11:47;;;;;;;10.63;5.93;;;;;;;26.59;81.40;101167.66;5286242;28;20494;-84
2023/08/19 09:14:44;;;;;;;10.25;7.05;;;;;;;26.79;80.17;101173.34;5285232;28;20024;-83
2023/08/19 09:17:15;;;;;;;12.82;7.10;;;;;;;26.99;78.31;101172.69;5286389;28;20464;-82
2023/08/19 09:19:46;;;;;;;;;;;;;;;27.25;78.48;101184.06;5286231;28;20043;-83
2023/08/19 09:22:18;;;;;;;9.83;7.03;;;;;;;27.04;77.29;101173.19;5287141;28;19971;-83
2023/08/19 09:24:49;;;;;;;;;;;;;;;27.44;77.40;101190.72;5286866;28;20471;-84
2023/08/19 09:27:31;;;;;;;9.40;8.25;;;;;;;26.83;78.46;101198.91;5286236;28;19916;-83
2023/08/19 09:30:03;;;;;;;11.55;8.73;;;;;;;26.81;78.64;101199.03;5286925;28;20115;-80
2023/08/19 09:32:36;;;;;;;15.65;8.40;;;;;;;26.85;78.87;101203.16;5287609;28;20021;-83
2023/08/19 09:35:12;;;;;;;11.93;9.35;;;;;;;26.80;78.30;101196.47;5267523;28;20102;-82
2023/08/19 09:37:43;;;;;;;10.63;8.75;;;;;;;27.02;78.17;101206.41;5284600;28;20482;-83
2023/08/19 09:40:20;;;;;;;;;;;;;;;27.39;76.96;101211.66;5284889;28;20024;-83
2023/08/19 09:42:51;;;;;;;10.00;8.77;;;;;;;27.59;76.54;101208.25;5276190;28;19967;-82
2023/08/19 09:45:24;;;;;;;;;;;;;;;28.45;73.13;101208.59;5305841;28;20455;-83
2023/08/19 09:47:55;;;;;;;13.73;9.52;;;;;;;28.42;72.05;101221.38;5304450;28;20008;-82
2023/08/19 09:50:27;;;;;;;;;;;;;;;29.12;70.31;101230.81;5304487;28;20061;-83
2023/08/19 09:52:59;;;;;;;12.15;10.82;;;;;;;28.51;70.97;101236.72;5305846;28;20003;-82
2023/08/19 09:55:34;;;;;;;12.32;9.70;;;;;;;28.19;72.92;101232.16;5304751;28;20032;-80
2023/08/19 09:58:05;;;;;;;14.43;11.52;;;;;;;27.84;73.93;101249.19;5305456;28;20383;-81
2023/08/19 10:00:37;;;;;;;;;;;;;;;28.34;73.33;101246.16;5305015;28;20028;-82
2023/08/19 10:03:08;;;;;;;13.20;9.75;;;;;;;28.73;70.38;101257.31;5305253;28;20012;-81
2023/08/19 10:05:41;;;;;;;;;;;;;;;28.98;69.71;101253.47;5304666;28;20024;-82
2023/08/19 10:08:22;;;;;;;12.15;9.40;;;;;;;27.76;73.64;101260.50;5304632;28;19908;-80
2023/08/19 10:10:53;;;;;;;11.10;10.07;;;;;;;27.34;75.42;101265.53;5303177;28;20503;-79
2023/08/19 10:13:26;;;;;;;;;;;;;;;27.79;74.99;101256.75;5304724;28;20043;-81
2023/08/19 10:15:58;;;;;;;;;;;;;;;28.04;73.49;101255.69;5305765;28;19918;-83
2023/08/19 10:18:32;;;;;;;11.00;9.27;;;;;;;27.90;72.79;101264.78;5304838;28;20367;-80
2023/08/19 10:21:08;;;;;;;12.68;10.25;;;;;;;27.86;73.82;101257.13;5305185;28;20463;-82
2023/08/19 10:23:45;;;;;;;11.18;9.38;;;;;;;29.25;69.10;101269.13;5304396;28;20028;-82
2023/08/19 10:26:17;;;;;;;15.23;9.52;;;;;;;30.23;64.56;101290.31;5304537;28;20474;-82
2023/08/19 10:29:05;;;;;;;24.50;12.02;;;;;;;30.71;62.91;101282.41;5303499;28;20161;-83
2023/08/19 10:31:37;;;;;;;12.60;10.57;;;;;;;30.41;62.16;101288.72;5304614;28;20119;-82
2023/08/19 10:34:30;;;;;;;11.48;8.98;;;;;;;30.45;61.80;101281.25;5303883;28;20119;-82
2023/08/19 10:37:08;;;;;;;12.57;10.05;;;;;;;30.72;59.84;101275.22;5304572;28;20090;-83
2023/08/19 10:39:40;;;;;;;10.45;8.88;;;;;;;30.69;58.87;101284.41;5302929;28;20077;-87
2023/08/19 10:42:13;;;;;;;11.45;9.15;;;;;;;30.00;60.69;101294.03;5304469;28;20036;-85
2023/08/19 10:44:45;;;;;;;10.63;8.50;;;;;;;29.42;64.25;101293.69;5284773;28;20052;-83
2023/08/19 10:47:18;;;;;;;11.65;9.23;;;;;;;29.07;66.80;101308.19;5287378;28;20082;-82
2023/08/19 10:49:49;;;;;;;10.98;8.75;;;;;;;28.62;67.86;101308.31;5286994;28;20025;-84
2023/08/19 10:52:21;;;;;;;9.23;8.13;;;;;;;28.42;69.13;101309.88;5287648;28;20396;-84
2023/08/19 10:54:52;;;;;;;11.43;9.60;;;;;;;27.73;72.04;101316.16;5287178;28;20025;-86
2023/08/19 10:57:24;;;;;;;;;;;;;;;27.74;72.58;101332.09;5281729;28;20083;-83
2023/08/19 11:00:07;;;;;;;11.15;9.95;;;;;;;27.15;76.30;101326.75;5277260;28;19923;-84
2023/08/19 11:02:40;;;;;;;11.50;10.35;;;;;;;26.83;77.64;101333.50;5287324;28;20099;-83
2023/08/19 11:05:11;;;;;;;12.77;11.50;;;;;;;26.70;78.28;101346.06;5287536;28;20024;-84
2023/08/19 11:07:45;;;;;;;;;;;;;;;26.73;77.92;101338.66;5286510;28;20052;-85
2023/08/19 11:10:16;;;;;;;;;;;;;;;26.60;78.71;101345.84;5287660;28;19913;-86
2023/08/19 11:12:48;;;;;;;14.13;12.67;;;;;;;26.31;79.42;101351.44;5286606;28;19924;-85
2023/08/19 11:15:24;;;;;;;16.08;12.88;;;;;;;26.14;80.15;101360.63;5286744;28;20475;-84
2023/08/19 11:17:55;;;;;;;13.68;12.27;;;;;;;25.84;80.36;101377.78;5286629;28;20029;-83
2023/08/19 11:20:30;;;;;;;;;;;;;;;26.10;79.33;101393.00;5287885;28;20028;-84
2023/08/19 11:23:02;;;;;;;16.02;12.32;;;;;;;25.69;80.87;101396.66;5283324;28;20412;-82
2023/08/19 11:25:36;;;;;;;12.23;11.00;;;;;;;25.64;82.00;101413.81;5276999;28;20090;-79
2023/08/19 11:28:08;;;;;;;13.57;11.43;;;;;;;25.69;81.03;101408.16;5258371;28;20031;-84
2023/08/19 11:30:39;;;;;;;13.85;12.25;;;;;;;25.44;81.44;101443.66;5258353;28;20033;-84
2023/08/19 11:33:11;;;;;;;18.73;14.05;;;;;;;25.38;83.02;101444.06;5275052;28;20028;-84
2023/08/19 11:35:43;;;;;;;13.43;12.05;;;;;;;25.29;84.67;101456.16;5257453;28;20044;-83
2023/08/19 11:38:15;;;;;;;15.95;14.35;;;;;;;24.89;89.85;101466.66;5275689;28;20021;-85
2023/08/19 11:40:51;;;;;;;15.90;13.23;;;;;;;24.56;92.08;101465.13;5276478;28;20112;-84